Airport Name : Varna

Other Name : Varna

ICAO : LBWN

IATA : VAR

FAA :

Latitude : 43.232072

Longitude : 27.825106

Country : Bulgaria

Local Date and Time : 04 Dec 2020 15:59

 

TAF (Terminal Aerodrome Forecast)

TAF LBWN 041100Z 0412/0512 10010KT 9999 SCT020 BKN030 BECMG 0418/0420 VRB04KT 5000 BR BKN015 TEMPO 0500/0507 1500 BR SCT004 OVC008 PROB40 0501/0507 0600 FG OVC003 BECMG 0509/0511 10010KT 9999 SCT020 BKN030

 

METAR (METeorological Aerodrome Report)

LBWN 041330Z 12009KT 9999 FEW015 BKN026 13/09 Q1017 NOSIG

LBWN 041300Z 13009KT 9999 FEW016 SCT026 13/10 Q1016 NOSIG

LBWN 041230Z 13009KT 9999 SCT016 SCT025 14/10 Q1016 NOSIG

LBWN 041200Z 13009KT 9999 SCT013 SCT025 14/10 Q1016 NOSIG

LBWN 041130Z 12007KT 9999 SCT012 SCT017 BKN023 14/11 Q1016 NOSIG

LBWN 041100Z 11007KT 9999 FEW014 BKN022 OVC031 13/10 Q1017 NOSIG

LBWN 041030Z 12008KT 9999 SCT017 BKN023 OVC034 13/10 Q1017 NOSIG

LBWN 041000Z 11006KT 9999 FEW016 SCT019 BKN036 14/10 Q1017 NOSIG

To Charter a Jet Click here.